Terminal Aerodrome Forecast
Issued by NWS Binghamton, NY

Home | Current Version | Previous Version | Text Only | Print | Product List | Glossary On
Versions: 1 2 3 4 5 6 7 8 9 10 11 12 13 14 15 16 17 18 19 20 21 22
000
FTUS41 KBGM 222100 AAA
TAFBGM
TAF AMD
KBGM 222139Z 2222/2318 31010KT P6SM SCT025 BKN035
     FM230300 30005KT P6SM SCT035
     FM230800 27004KT P6SM BKN020
     FM231300 30007KT P6SM BKN035=

USA.gov is the U.S. government's official web portal to all federal, state and local government web resources and services.